sensor_id;sensor_type;location;lat;lon;timestamp;P1;durP1;ratioP1;P2;durP2;ratioP2
26612;SDS011;14248;57.652;11.908;2023-05-10T00:01:49;3.45;;;2.10;;
26612;SDS011;14248;57.652;11.908;2023-05-10T00:04:15;2.65;;;2.10;;
26612;SDS011;14248;57.652;11.908;2023-05-10T00:06:41;5.45;;;2.50;;
26612;SDS011;14248;57.652;11.908;2023-05-10T00:09:07;2.58;;;2.05;;
26612;SDS011;14248;57.652;11.908;2023-05-10T00:11:33;3.45;;;2.30;;
26612;SDS011;14248;57.652;11.908;2023-05-10T00:14:02;2.47;;;2.17;;
26612;SDS011;14248;57.652;11.908;2023-05-10T00:16:28;2.10;;;1.88;;
26612;SDS011;14248;57.652;11.908;2023-05-10T00:18:54;3.67;;;2.30;;
26612;SDS011;14248;57.652;11.908;2023-05-10T00:21:21;3.00;;;2.40;;
26612;SDS011;14248;57.652;11.908;2023-05-10T00:23:48;4.05;;;2.22;;
26612;SDS011;14248;57.652;11.908;2023-05-10T00:26:14;2.47;;;2.28;;
26612;SDS011;14248;57.652;11.908;2023-05-10T00:28:41;3.63;;;2.40;;
26612;SDS011;14248;57.652;11.908;2023-05-10T00:31:07;3.30;;;2.15;;
26612;SDS011;14248;57.652;11.908;2023-05-10T00:33:33;3.58;;;2.38;;
26612;SDS011;14248;57.652;11.908;2023-05-10T00:36:00;3.55;;;2.30;;
26612;SDS011;14248;57.652;11.908;2023-05-10T00:38:26;1.95;;;1.85;;
26612;SDS011;14248;57.652;11.908;2023-05-10T00:40:53;3.58;;;2.28;;
26612;SDS011;14248;57.652;11.908;2023-05-10T00:43:21;2.75;;;2.15;;
26612;SDS011;14248;57.652;11.908;2023-05-10T00:45:47;3.03;;;2.38;;
26612;SDS011;14248;57.652;11.908;2023-05-10T00:48:14;2.97;;;2.10;;
26612;SDS011;14248;57.652;11.908;2023-05-10T00:50:40;2.80;;;2.35;;
26612;SDS011;14248;57.652;11.908;2023-05-10T00:53:08;4.60;;;2.85;;
26612;SDS011;14248;57.652;11.908;2023-05-10T00:55:35;2.65;;;2.22;;
26612;SDS011;14248;57.652;11.908;2023-05-10T00:58:02;3.78;;;2.40;;
26612;SDS011;14248;57.652;11.908;2023-05-10T01:00:28;4.70;;;2.95;;
26612;SDS011;14248;57.652;11.908;2023-05-10T01:02:55;2.78;;;2.17;;
26612;SDS011;14248;57.652;11.908;2023-05-10T01:05:22;2.97;;;2.00;;
26612;SDS011;14248;57.652;11.908;2023-05-10T01:07:48;4.57;;;2.70;;
26612;SDS011;14248;57.652;11.908;2023-05-10T01:10:15;4.07;;;2.60;;
26612;SDS011;14248;57.652;11.908;2023-05-10T01:12:42;4.65;;;2.60;;
26612;SDS011;14248;57.652;11.908;2023-05-10T01:15:10;3.83;;;2.72;;
26612;SDS011;14248;57.652;11.908;2023-05-10T01:17:38;4.25;;;2.50;;
26612;SDS011;14248;57.652;11.908;2023-05-10T01:20:07;3.33;;;2.42;;
26612;SDS011;14248;57.652;11.908;2023-05-10T01:25:10;4.88;;;2.47;;
26612;SDS011;14248;57.652;11.908;2023-05-10T01:32:55;4.32;;;2.22;;
26612;SDS011;14248;57.652;11.908;2023-05-10T01:35:28;2.65;;;1.90;;
26612;SDS011;14248;57.652;11.908;2023-05-10T01:40:29;3.80;;;2.08;;
26612;SDS011;14248;57.652;11.908;2023-05-10T01:42:59;2.47;;;2.10;;
26612;SDS011;14248;57.652;11.908;2023-05-10T01:45:28;3.90;;;2.50;;
26612;SDS011;14248;57.652;11.908;2023-05-10T01:48:08;3.05;;;2.40;;
26612;SDS011;14248;57.652;11.908;2023-05-10T01:50:38;3.75;;;2.10;;
26612;SDS011;14248;57.652;11.908;2023-05-10T01:53:06;3.20;;;2.08;;
26612;SDS011;14248;57.652;11.908;2023-05-10T01:55:34;2.17;;;1.98;;
26612;SDS011;14248;57.652;11.908;2023-05-10T01:58:11;3.03;;;2.03;;
26612;SDS011;14248;57.652;11.908;2023-05-10T02:00:45;3.03;;;2.55;;
26612;SDS011;14248;57.652;11.908;2023-05-10T02:03:13;2.85;;;2.63;;
26612;SDS011;14248;57.652;11.908;2023-05-10T02:05:40;2.92;;;2.08;;
26612;SDS011;14248;57.652;11.908;2023-05-10T02:08:07;2.72;;;2.22;;
26612;SDS011;14248;57.652;11.908;2023-05-10T02:10:34;3.53;;;2.50;;
26612;SDS011;14248;57.652;11.908;2023-05-10T02:13:01;3.55;;;2.10;;
26612;SDS011;14248;57.652;11.908;2023-05-10T02:15:29;3.45;;;2.35;;
26612;SDS011;14248;57.652;11.908;2023-05-10T02:17:56;2.40;;;1.85;;
26612;SDS011;14248;57.652;11.908;2023-05-10T02:20:25;3.30;;;2.60;;
26612;SDS011;14248;57.652;11.908;2023-05-10T02:22:54;5.45;;;2.60;;
26612;SDS011;14248;57.652;11.908;2023-05-10T02:25:21;4.82;;;2.50;;
26612;SDS011;14248;57.652;11.908;2023-05-10T02:27:48;4.45;;;2.25;;
26612;SDS011;14248;57.652;11.908;2023-05-10T02:30:14;4.22;;;2.47;;
26612;SDS011;14248;57.652;11.908;2023-05-10T02:32:41;3.08;;;2.08;;
26612;SDS011;14248;57.652;11.908;2023-05-10T02:35:09;3.63;;;2.50;;
26612;SDS011;14248;57.652;11.908;2023-05-10T02:37:36;3.60;;;2.53;;
26612;SDS011;14248;57.652;11.908;2023-05-10T02:40:03;3.88;;;2.50;;
26612;SDS011;14248;57.652;11.908;2023-05-10T02:45:20;2.72;;;2.30;;
26612;SDS011;14248;57.652;11.908;2023-05-10T02:47:47;4.30;;;2.65;;
26612;SDS011;14248;57.652;11.908;2023-05-10T02:50:16;5.47;;;2.80;;
26612;SDS011;14248;57.652;11.908;2023-05-10T02:52:43;7.35;;;2.97;;
26612;SDS011;14248;57.652;11.908;2023-05-10T02:55:16;5.43;;;3.00;;
26612;SDS011;14248;57.652;11.908;2023-05-10T02:57:49;3.70;;;2.70;;
26612;SDS011;14248;57.652;11.908;2023-05-10T03:00:17;4.03;;;2.72;;
26612;SDS011;14248;57.652;11.908;2023-05-10T03:02:45;4.30;;;2.80;;
26612;SDS011;14248;57.652;11.908;2023-05-10T03:05:11;3.95;;;2.80;;
26612;SDS011;14248;57.652;11.908;2023-05-10T03:07:38;5.20;;;2.95;;
26612;SDS011;14248;57.652;11.908;2023-05-10T03:10:04;3.67;;;2.63;;
26612;SDS011;14248;57.652;11.908;2023-05-10T03:20:22;3.95;;;2.72;;
26612;SDS011;14248;57.652;11.908;2023-05-10T03:22:52;4.07;;;2.45;;
26612;SDS011;14248;57.652;11.908;2023-05-10T03:25:20;4.03;;;2.65;;
26612;SDS011;14248;57.652;11.908;2023-05-10T03:27:47;3.38;;;2.78;;
26612;SDS011;14248;57.652;11.908;2023-05-10T03:30:15;2.78;;;2.40;;
26612;SDS011;14248;57.652;11.908;2023-05-10T03:32:42;4.40;;;2.60;;
26612;SDS011;14248;57.652;11.908;2023-05-10T03:35:09;6.35;;;2.83;;
26612;SDS011;14248;57.652;11.908;2023-05-10T03:37:36;8.48;;;2.58;;
26612;SDS011;14248;57.652;11.908;2023-05-10T03:40:03;3.55;;;3.05;;
26612;SDS011;14248;57.652;11.908;2023-05-10T03:42:29;5.47;;;2.65;;
26612;SDS011;14248;57.652;11.908;2023-05-10T03:44:56;4.88;;;2.38;;
26612;SDS011;14248;57.652;11.908;2023-05-10T03:47:23;3.65;;;2.30;;
26612;SDS011;14248;57.652;11.908;2023-05-10T03:49:52;4.25;;;2.80;;
26612;SDS011;14248;57.652;11.908;2023-05-10T03:52:18;3.50;;;2.42;;
26612;SDS011;14248;57.652;11.908;2023-05-10T03:54:45;4.13;;;2.47;;
26612;SDS011;14248;57.652;11.908;2023-05-10T03:57:12;3.55;;;2.75;;
26612;SDS011;14248;57.652;11.908;2023-05-10T03:59:38;5.63;;;2.20;;
26612;SDS011;14248;57.652;11.908;2023-05-10T04:02:05;4.75;;;2.60;;
26612;SDS011;14248;57.652;11.908;2023-05-10T04:04:32;3.03;;;2.55;;
26612;SDS011;14248;57.652;11.908;2023-05-10T04:06:59;3.78;;;3.08;;
26612;SDS011;14248;57.652;11.908;2023-05-10T04:09:28;3.40;;;2.38;;
26612;SDS011;14248;57.652;11.908;2023-05-10T04:11:54;4.43;;;2.42;;
26612;SDS011;14248;57.652;11.908;2023-05-10T04:14:23;3.75;;;2.63;;
26612;SDS011;14248;57.652;11.908;2023-05-10T04:16:49;3.03;;;2.33;;
26612;SDS011;14248;57.652;11.908;2023-05-10T04:19:15;2.78;;;2.40;;
26612;SDS011;14248;57.652;11.908;2023-05-10T04:21:42;4.45;;;2.63;;
26612;SDS011;14248;57.652;11.908;2023-05-10T04:24:09;4.82;;;2.90;;
26612;SDS011;14248;57.652;11.908;2023-05-10T04:26:36;3.20;;;2.70;;
26612;SDS011;14248;57.652;11.908;2023-05-10T04:29:02;4.28;;;2.60;;
26612;SDS011;14248;57.652;11.908;2023-05-10T04:31:28;3.97;;;2.80;;
26612;SDS011;14248;57.652;11.908;2023-05-10T04:33:54;5.53;;;2.67;;
26612;SDS011;14248;57.652;11.908;2023-05-10T04:36:20;5.28;;;2.90;;
26612;SDS011;14248;57.652;11.908;2023-05-10T04:38:47;4.30;;;2.88;;
26612;SDS011;14248;57.652;11.908;2023-05-10T04:41:14;5.75;;;2.95;;
26612;SDS011;14248;57.652;11.908;2023-05-10T04:43:41;4.40;;;2.33;;
26612;SDS011;14248;57.652;11.908;2023-05-10T04:46:08;4.30;;;2.38;;
26612;SDS011;14248;57.652;11.908;2023-05-10T04:48:35;4.65;;;2.75;;
26612;SDS011;14248;57.652;11.908;2023-05-10T04:51:01;3.30;;;2.65;;
26612;SDS011;14248;57.652;11.908;2023-05-10T04:53:29;4.05;;;2.33;;
26612;SDS011;14248;57.652;11.908;2023-05-10T04:55:56;6.47;;;2.72;;
26612;SDS011;14248;57.652;11.908;2023-05-10T04:58:23;5.05;;;2.92;;
26612;SDS011;14248;57.652;11.908;2023-05-10T05:00:52;3.53;;;2.63;;
26612;SDS011;14248;57.652;11.908;2023-05-10T05:03:22;5.63;;;2.50;;
26612;SDS011;14248;57.652;11.908;2023-05-10T05:05:49;5.85;;;2.88;;
26612;SDS011;14248;57.652;11.908;2023-05-10T05:08:15;5.30;;;2.70;;
26612;SDS011;14248;57.652;11.908;2023-05-10T05:10:42;6.20;;;2.58;;
26612;SDS011;14248;57.652;11.908;2023-05-10T05:13:09;6.30;;;2.80;;
26612;SDS011;14248;57.652;11.908;2023-05-10T05:15:36;5.38;;;2.75;;
26612;SDS011;14248;57.652;11.908;2023-05-10T05:18:09;3.13;;;2.63;;
26612;SDS011;14248;57.652;11.908;2023-05-10T05:20:36;5.40;;;2.72;;
26612;SDS011;14248;57.652;11.908;2023-05-10T05:23:04;5.00;;;2.60;;
26612;SDS011;14248;57.652;11.908;2023-05-10T05:25:32;6.75;;;2.90;;
26612;SDS011;14248;57.652;11.908;2023-05-10T05:28:07;6.47;;;3.03;;
26612;SDS011;14248;57.652;11.908;2023-05-10T05:30:35;4.22;;;2.78;;
26612;SDS011;14248;57.652;11.908;2023-05-10T05:35:43;8.15;;;2.53;;
26612;SDS011;14248;57.652;11.908;2023-05-10T05:38:13;4.97;;;2.78;;
26612;SDS011;14248;57.652;11.908;2023-05-10T05:40:39;6.18;;;2.67;;
26612;SDS011;14248;57.652;11.908;2023-05-10T05:43:12;4.28;;;2.88;;
26612;SDS011;14248;57.652;11.908;2023-05-10T05:45:41;4.38;;;2.67;;
26612;SDS011;14248;57.652;11.908;2023-05-10T05:48:11;4.28;;;2.80;;
26612;SDS011;14248;57.652;11.908;2023-05-10T05:50:41;3.50;;;2.80;;
26612;SDS011;14248;57.652;11.908;2023-05-10T05:55:46;3.85;;;2.80;;
26612;SDS011;14248;57.652;11.908;2023-05-10T05:58:16;3.92;;;2.80;;
26612;SDS011;14248;57.652;11.908;2023-05-10T06:00:43;6.63;;;2.67;;
26612;SDS011;14248;57.652;11.908;2023-05-10T06:03:09;4.82;;;3.00;;
26612;SDS011;14248;57.652;11.908;2023-05-10T06:05:37;4.57;;;2.78;;
26612;SDS011;14248;57.652;11.908;2023-05-10T06:08:03;2.50;;;2.30;;
26612;SDS011;14248;57.652;11.908;2023-05-10T06:10:29;6.57;;;2.65;;
26612;SDS011;14248;57.652;11.908;2023-05-10T06:12:55;3.78;;;2.85;;
26612;SDS011;14248;57.652;11.908;2023-05-10T06:15:21;4.13;;;2.58;;
26612;SDS011;14248;57.652;11.908;2023-05-10T06:17:48;5.18;;;2.70;;
26612;SDS011;14248;57.652;11.908;2023-05-10T06:20:16;6.47;;;2.67;;
26612;SDS011;14248;57.652;11.908;2023-05-10T06:22:43;4.85;;;2.83;;
26612;SDS011;14248;57.652;11.908;2023-05-10T06:25:09;5.82;;;2.70;;
26612;SDS011;14248;57.652;11.908;2023-05-10T06:27:36;4.45;;;2.65;;
26612;SDS011;14248;57.652;11.908;2023-05-10T06:30:02;6.22;;;2.80;;
26612;SDS011;14248;57.652;11.908;2023-05-10T06:32:29;3.58;;;2.67;;
26612;SDS011;14248;57.652;11.908;2023-05-10T06:34:56;4.05;;;2.78;;
26612;SDS011;14248;57.652;11.908;2023-05-10T06:37:22;4.40;;;2.58;;
26612;SDS011;14248;57.652;11.908;2023-05-10T06:39:48;4.80;;;2.50;;
26612;SDS011;14248;57.652;11.908;2023-05-10T06:42:14;3.45;;;2.70;;
26612;SDS011;14248;57.652;11.908;2023-05-10T06:44:42;3.17;;;2.35;;
26612;SDS011;14248;57.652;11.908;2023-05-10T06:47:08;3.78;;;2.72;;
26612;SDS011;14248;57.652;11.908;2023-05-10T06:49:36;3.35;;;2.42;;
26612;SDS011;14248;57.652;11.908;2023-05-10T06:52:02;4.45;;;2.45;;
26612;SDS011;14248;57.652;11.908;2023-05-10T06:54:29;3.53;;;2.50;;
26612;SDS011;14248;57.652;11.908;2023-05-10T06:56:55;4.82;;;2.75;;
26612;SDS011;14248;57.652;11.908;2023-05-10T06:59:21;3.08;;;2.10;;
26612;SDS011;14248;57.652;11.908;2023-05-10T07:01:48;4.97;;;2.60;;
26612;SDS011;14248;57.652;11.908;2023-05-10T07:04:14;4.43;;;2.60;;
26612;SDS011;14248;57.652;11.908;2023-05-10T07:06:40;4.22;;;2.67;;
26612;SDS011;14248;57.652;11.908;2023-05-10T07:09:07;4.75;;;2.83;;
26612;SDS011;14248;57.652;11.908;2023-05-10T07:11:33;4.78;;;2.70;;
26612;SDS011;14248;57.652;11.908;2023-05-10T07:13:59;6.28;;;2.60;;
26612;SDS011;14248;57.652;11.908;2023-05-10T07:16:25;3.03;;;2.60;;
26612;SDS011;14248;57.652;11.908;2023-05-10T07:18:51;4.32;;;2.70;;
26612;SDS011;14248;57.652;11.908;2023-05-10T07:21:19;5.75;;;2.60;;
26612;SDS011;14248;57.652;11.908;2023-05-10T07:23:45;3.35;;;3.00;;
26612;SDS011;14248;57.652;11.908;2023-05-10T07:26:12;3.08;;;2.60;;
26612;SDS011;14248;57.652;11.908;2023-05-10T07:28:39;3.45;;;2.67;;
26612;SDS011;14248;57.652;11.908;2023-05-10T07:31:05;3.70;;;2.67;;
26612;SDS011;14248;57.652;11.908;2023-05-10T07:33:31;3.03;;;2.63;;
26612;SDS011;14248;57.652;11.908;2023-05-10T07:35:57;4.75;;;2.80;;
26612;SDS011;14248;57.652;11.908;2023-05-10T07:38:23;5.28;;;2.95;;
26612;SDS011;14248;57.652;11.908;2023-05-10T07:40:50;4.78;;;2.78;;
26612;SDS011;14248;57.652;11.908;2023-05-10T07:43:16;4.75;;;2.90;;
26612;SDS011;14248;57.652;11.908;2023-05-10T07:45:43;4.78;;;2.55;;
26612;SDS011;14248;57.652;11.908;2023-05-10T07:48:09;3.80;;;2.70;;
26612;SDS011;14248;57.652;11.908;2023-05-10T07:50:36;6.70;;;2.60;;
26612;SDS011;14248;57.652;11.908;2023-05-10T07:53:02;5.20;;;2.40;;
26612;SDS011;14248;57.652;11.908;2023-05-10T07:55:28;4.30;;;2.40;;
26612;SDS011;14248;57.652;11.908;2023-05-10T07:57:54;4.68;;;2.55;;
26612;SDS011;14248;57.652;11.908;2023-05-10T08:00:20;4.18;;;2.70;;
26612;SDS011;14248;57.652;11.908;2023-05-10T08:02:46;5.20;;;2.58;;
26612;SDS011;14248;57.652;11.908;2023-05-10T08:05:13;4.97;;;2.45;;
26612;SDS011;14248;57.652;11.908;2023-05-10T08:07:39;5.57;;;2.60;;
26612;SDS011;14248;57.652;11.908;2023-05-10T08:10:05;6.18;;;2.30;;
26612;SDS011;14248;57.652;11.908;2023-05-10T08:12:33;3.50;;;2.65;;
26612;SDS011;14248;57.652;11.908;2023-05-10T08:14:59;2.88;;;2.50;;
26612;SDS011;14248;57.652;11.908;2023-05-10T08:17:26;5.38;;;2.90;;
26612;SDS011;14248;57.652;11.908;2023-05-10T08:19:52;3.17;;;2.38;;
26612;SDS011;14248;57.652;11.908;2023-05-10T08:22:18;3.00;;;2.30;;
26612;SDS011;14248;57.652;11.908;2023-05-10T08:24:44;5.93;;;2.60;;
26612;SDS011;14248;57.652;11.908;2023-05-10T08:27:10;2.67;;;2.42;;
26612;SDS011;14248;57.652;11.908;2023-05-10T08:29:37;3.72;;;2.60;;
26612;SDS011;14248;57.652;11.908;2023-05-10T08:32:03;5.25;;;2.50;;
26612;SDS011;14248;57.652;11.908;2023-05-10T08:34:30;2.50;;;2.30;;
26612;SDS011;14248;57.652;11.908;2023-05-10T08:36:56;4.90;;;2.50;;
26612;SDS011;14248;57.652;11.908;2023-05-10T08:39:22;3.75;;;2.50;;
26612;SDS011;14248;57.652;11.908;2023-05-10T08:41:49;4.75;;;2.60;;
26612;SDS011;14248;57.652;11.908;2023-05-10T08:44:16;2.78;;;2.58;;
26612;SDS011;14248;57.652;11.908;2023-05-10T08:46:46;3.40;;;2.58;;
26612;SDS011;14248;57.652;11.908;2023-05-10T08:49:16;3.75;;;2.65;;
26612;SDS011;14248;57.652;11.908;2023-05-10T08:51:44;4.93;;;2.60;;
26612;SDS011;14248;57.652;11.908;2023-05-10T08:54:14;3.42;;;2.38;;
26612;SDS011;14248;57.652;11.908;2023-05-10T08:56:41;3.70;;;2.40;;
26612;SDS011;14248;57.652;11.908;2023-05-10T08:59:07;4.13;;;2.67;;
26612;SDS011;14248;57.652;11.908;2023-05-10T09:01:34;2.53;;;2.33;;
26612;SDS011;14248;57.652;11.908;2023-05-10T09:04:02;3.22;;;2.33;;
26612;SDS011;14248;57.652;11.908;2023-05-10T09:06:29;4.50;;;2.75;;
26612;SDS011;14248;57.652;11.908;2023-05-10T09:08:55;4.40;;;2.78;;
26612;SDS011;14248;57.652;11.908;2023-05-10T09:11:21;5.20;;;2.50;;
26612;SDS011;14248;57.652;11.908;2023-05-10T09:13:48;4.20;;;2.50;;
26612;SDS011;14248;57.652;11.908;2023-05-10T09:16:14;2.83;;;2.25;;
26612;SDS011;14248;57.652;11.908;2023-05-10T09:18:40;4.32;;;2.30;;
26612;SDS011;14248;57.652;11.908;2023-05-10T09:21:06;3.22;;;2.60;;
26612;SDS011;14248;57.652;11.908;2023-05-10T09:23:32;3.30;;;2.70;;
26612;SDS011;14248;57.652;11.908;2023-05-10T09:26:01;4.05;;;2.55;;
26612;SDS011;14248;57.652;11.908;2023-05-10T09:29:11;4.65;;;2.50;;
26612;SDS011;14248;57.652;11.908;2023-05-10T09:31:18;3.15;;;2.20;;
26612;SDS011;14248;57.652;11.908;2023-05-10T09:33:45;2.58;;;2.35;;
26612;SDS011;14248;57.652;11.908;2023-05-10T09:36:12;3.00;;;2.45;;
26612;SDS011;14248;57.652;11.908;2023-05-10T09:38:46;3.90;;;2.50;;
26612;SDS011;14248;57.652;11.908;2023-05-10T09:41:19;4.18;;;2.83;;
26612;SDS011;14248;57.652;11.908;2023-05-10T09:43:46;3.75;;;2.40;;
26612;SDS011;14248;57.652;11.908;2023-05-10T09:46:14;7.70;;;2.70;;
26612;SDS011;14248;57.652;11.908;2023-05-10T09:48:45;9.80;;;2.92;;
26612;SDS011;14248;57.652;11.908;2023-05-10T09:51:31;7.97;;;3.05;;
26612;SDS011;14248;57.652;11.908;2023-05-10T09:54:15;2.80;;;2.50;;
26612;SDS011;14248;57.652;11.908;2023-05-10T09:59:10;3.85;;;2.35;;
26612;SDS011;14248;57.652;11.908;2023-05-10T10:01:37;4.40;;;2.50;;
26612;SDS011;14248;57.652;11.908;2023-05-10T10:04:08;3.88;;;2.60;;
26612;SDS011;14248;57.652;11.908;2023-05-10T10:06:39;6.05;;;2.72;;
26612;SDS011;14248;57.652;11.908;2023-05-10T10:09:05;5.82;;;2.90;;
26612;SDS011;14248;57.652;11.908;2023-05-10T10:11:33;3.90;;;2.60;;
26612;SDS011;14248;57.652;11.908;2023-05-10T10:13:59;3.53;;;2.33;;
26612;SDS011;14248;57.652;11.908;2023-05-10T10:16:26;4.43;;;2.50;;
26612;SDS011;14248;57.652;11.908;2023-05-10T10:18:53;5.30;;;2.42;;
26612;SDS011;14248;57.652;11.908;2023-05-10T10:21:19;7.80;;;2.60;;
26612;SDS011;14248;57.652;11.908;2023-05-10T10:23:45;5.10;;;2.45;;
26612;SDS011;14248;57.652;11.908;2023-05-10T10:26:11;9.30;;;3.22;;
26612;SDS011;14248;57.652;11.908;2023-05-10T10:31:36;4.25;;;2.63;;
26612;SDS011;14248;57.652;11.908;2023-05-10T10:34:17;4.18;;;2.40;;
26612;SDS011;14248;57.652;11.908;2023-05-10T10:36:47;2.90;;;2.65;;
26612;SDS011;14248;57.652;11.908;2023-05-10T10:39:13;3.03;;;2.20;;
26612;SDS011;14248;57.652;11.908;2023-05-10T10:41:50;2.25;;;2.05;;
26612;SDS011;14248;57.652;11.908;2023-05-10T10:49:28;2.78;;;2.53;;
26612;SDS011;14248;57.652;11.908;2023-05-10T10:55:05;4.15;;;2.28;;
26612;SDS011;14248;57.652;11.908;2023-05-10T10:57:43;3.20;;;2.60;;
26612;SDS011;14248;57.652;11.908;2023-05-10T11:00:28;2.67;;;2.28;;
26612;SDS011;14248;57.652;11.908;2023-05-10T11:07:51;3.65;;;2.30;;
26612;SDS011;14248;57.652;11.908;2023-05-10T11:10:22;3.58;;;2.33;;
26612;SDS011;14248;57.652;11.908;2023-05-10T11:15:19;2.10;;;1.95;;
26612;SDS011;14248;57.652;11.908;2023-05-10T11:17:47;2.78;;;2.00;;
26612;SDS011;14248;57.652;11.908;2023-05-10T11:20:16;2.55;;;2.03;;
26612;SDS011;14248;57.652;11.908;2023-05-10T11:22:54;6.35;;;2.28;;
26612;SDS011;14248;57.652;11.908;2023-05-10T11:25:22;3.78;;;2.45;;
26612;SDS011;14248;57.652;11.908;2023-05-10T11:27:51;3.78;;;2.13;;
26612;SDS011;14248;57.652;11.908;2023-05-10T11:30:17;2.17;;;1.98;;
26612;SDS011;14248;57.652;11.908;2023-05-10T11:32:43;2.40;;;2.00;;
26612;SDS011;14248;57.652;11.908;2023-05-10T11:35:10;5.15;;;1.92;;
26612;SDS011;14248;57.652;11.908;2023-05-10T11:37:36;3.55;;;2.35;;
26612;SDS011;14248;57.652;11.908;2023-05-10T11:40:06;3.65;;;2.30;;
26612;SDS011;14248;57.652;11.908;2023-05-10T11:42:34;3.42;;;2.03;;
26612;SDS011;14248;57.652;11.908;2023-05-10T11:45:01;2.80;;;2.35;;
26612;SDS011;14248;57.652;11.908;2023-05-10T11:47:27;4.15;;;2.20;;
26612;SDS011;14248;57.652;11.908;2023-05-10T11:49:53;5.18;;;2.40;;
26612;SDS011;14248;57.652;11.908;2023-05-10T11:52:19;3.53;;;1.98;;
26612;SDS011;14248;57.652;11.908;2023-05-10T11:54:52;2.70;;;1.88;;
26612;SDS011;14248;57.652;11.908;2023-05-10T11:57:20;2.72;;;2.03;;
26612;SDS011;14248;57.652;11.908;2023-05-10T11:59:47;5.13;;;2.00;;
26612;SDS011;14248;57.652;11.908;2023-05-10T12:02:13;21.25;;;5.32;;
26612;SDS011;14248;57.652;11.908;2023-05-10T12:04:40;29.88;;;6.13;;
26612;SDS011;14248;57.652;11.908;2023-05-10T12:07:06;6.85;;;2.92;;
26612;SDS011;14248;57.652;11.908;2023-05-10T12:09:32;3.42;;;2.20;;
26612;SDS011;14248;57.652;11.908;2023-05-10T12:11:58;1.70;;;1.60;;
26612;SDS011;14248;57.652;11.908;2023-05-10T12:14:25;1.77;;;1.60;;
26612;SDS011;14248;57.652;11.908;2023-05-10T12:16:51;2.38;;;1.95;;
26612;SDS011;14248;57.652;11.908;2023-05-10T12:19:18;3.22;;;1.63;;
26612;SDS011;14248;57.652;11.908;2023-05-10T12:21:45;9.55;;;2.10;;
26612;SDS011;14248;57.652;11.908;2023-05-10T12:24:11;2.42;;;1.85;;
26612;SDS011;14248;57.652;11.908;2023-05-10T12:26:39;3.45;;;1.77;;
26612;SDS011;14248;57.652;11.908;2023-05-10T12:29:15;2.78;;;1.70;;
26612;SDS011;14248;57.652;11.908;2023-05-10T12:34:27;2.47;;;1.60;;
26612;SDS011;14248;57.652;11.908;2023-05-10T12:36:55;3.10;;;1.75;;
26612;SDS011;14248;57.652;11.908;2023-05-10T12:39:21;3.55;;;1.33;;
26612;SDS011;14248;57.652;11.908;2023-05-10T12:41:47;2.53;;;1.58;;
26612;SDS011;14248;57.652;11.908;2023-05-10T12:44:14;1.60;;;1.50;;
26612;SDS011;14248;57.652;11.908;2023-05-10T12:46:40;1.65;;;1.55;;
26612;SDS011;14248;57.652;11.908;2023-05-10T12:49:06;2.28;;;1.63;;
26612;SDS011;14248;57.652;11.908;2023-05-10T12:51:32;2.88;;;1.50;;
26612;SDS011;14248;57.652;11.908;2023-05-10T12:53:58;1.80;;;1.30;;
26612;SDS011;14248;57.652;11.908;2023-05-10T12:56:24;1.83;;;1.38;;
26612;SDS011;14248;57.652;11.908;2023-05-10T12:58:50;3.50;;;2.03;;
26612;SDS011;14248;57.652;11.908;2023-05-10T13:01:16;4.28;;;2.35;;
26612;SDS011;14248;57.652;11.908;2023-05-10T13:03:42;2.88;;;1.90;;
26612;SDS011;14248;57.652;11.908;2023-05-10T13:06:08;2.30;;;2.10;;
26612;SDS011;14248;57.652;11.908;2023-05-10T13:08:35;5.68;;;2.15;;
26612;SDS011;14248;57.652;11.908;2023-05-10T13:11:01;3.25;;;2.08;;
26612;SDS011;14248;57.652;11.908;2023-05-10T13:13:28;4.53;;;2.13;;
26612;SDS011;14248;57.652;11.908;2023-05-10T13:15:54;4.32;;;2.00;;
26612;SDS011;14248;57.652;11.908;2023-05-10T13:18:20;4.28;;;2.20;;
26612;SDS011;14248;57.652;11.908;2023-05-10T13:20:46;4.10;;;2.20;;
26612;SDS011;14248;57.652;11.908;2023-05-10T13:23:14;3.20;;;1.90;;
26612;SDS011;14248;57.652;11.908;2023-05-10T13:25:40;4.72;;;1.90;;
26612;SDS011;14248;57.652;11.908;2023-05-10T13:28:06;4.78;;;1.90;;
26612;SDS011;14248;57.652;11.908;2023-05-10T13:30:32;2.15;;;1.75;;
26612;SDS011;14248;57.652;11.908;2023-05-10T13:32:58;3.88;;;2.05;;
26612;SDS011;14248;57.652;11.908;2023-05-10T13:35:25;2.08;;;1.80;;
26612;SDS011;14248;57.652;11.908;2023-05-10T13:37:51;2.83;;;1.63;;
26612;SDS011;14248;57.652;11.908;2023-05-10T13:40:18;2.33;;;1.80;;
26612;SDS011;14248;57.652;11.908;2023-05-10T13:42:44;3.53;;;1.52;;
26612;SDS011;14248;57.652;11.908;2023-05-10T13:45:10;3.17;;;1.52;;
26612;SDS011;14248;57.652;11.908;2023-05-10T13:47:39;4.40;;;1.50;;
26612;SDS011;14248;57.652;11.908;2023-05-10T13:50:04;2.08;;;1.63;;
26612;SDS011;14248;57.652;11.908;2023-05-10T13:52:31;1.95;;;1.67;;
26612;SDS011;14248;57.652;11.908;2023-05-10T13:54:56;1.55;;;1.40;;
26612;SDS011;14248;57.652;11.908;2023-05-10T13:57:22;2.28;;;1.52;;
26612;SDS011;14248;57.652;11.908;2023-05-10T13:59:49;2.38;;;1.50;;
26612;SDS011;14248;57.652;11.908;2023-05-10T14:02:15;1.48;;;1.38;;
26612;SDS011;14248;57.652;11.908;2023-05-10T14:04:41;1.40;;;1.23;;
26612;SDS011;14248;57.652;11.908;2023-05-10T14:07:06;1.33;;;1.23;;
26612;SDS011;14248;57.652;11.908;2023-05-10T14:09:32;1.42;;;1.20;;
26612;SDS011;14248;57.652;11.908;2023-05-10T14:11:58;1.58;;;1.15;;
26612;SDS011;14248;57.652;11.908;2023-05-10T14:14:24;1.75;;;1.33;;
26612;SDS011;14248;57.652;11.908;2023-05-10T14:16:50;2.30;;;1.35;;
26612;SDS011;14248;57.652;11.908;2023-05-10T14:19:16;1.00;;;1.00;;
26612;SDS011;14248;57.652;11.908;2023-05-10T14:21:42;2.03;;;1.35;;
26612;SDS011;14248;57.652;11.908;2023-05-10T14:24:08;1.35;;;1.20;;
26612;SDS011;14248;57.652;11.908;2023-05-10T14:26:35;1.20;;;1.10;;
26612;SDS011;14248;57.652;11.908;2023-05-10T14:29:01;1.25;;;1.15;;
26612;SDS011;14248;57.652;11.908;2023-05-10T14:31:27;1.02;;;1.00;;
26612;SDS011;14248;57.652;11.908;2023-05-10T14:33:55;1.30;;;1.20;;
26612;SDS011;14248;57.652;11.908;2023-05-10T14:36:22;1.83;;;1.48;;
26612;SDS011;14248;57.652;11.908;2023-05-10T14:38:48;1.90;;;1.48;;
26612;SDS011;14248;57.652;11.908;2023-05-10T14:41:13;4.93;;;1.80;;
26612;SDS011;14248;57.652;11.908;2023-05-10T14:43:41;1.98;;;1.27;;
26612;SDS011;14248;57.652;11.908;2023-05-10T14:46:06;2.35;;;1.40;;
26612;SDS011;14248;57.652;11.908;2023-05-10T14:48:32;2.88;;;1.67;;
26612;SDS011;14248;57.652;11.908;2023-05-10T14:50:58;1.92;;;1.63;;
26612;SDS011;14248;57.652;11.908;2023-05-10T14:53:24;2.05;;;1.85;;
26612;SDS011;14248;57.652;11.908;2023-05-10T14:55:50;1.65;;;1.55;;
26612;SDS011;14248;57.652;11.908;2023-05-10T14:58:17;2.28;;;1.70;;
26612;SDS011;14248;57.652;11.908;2023-05-10T15:00:43;1.90;;;1.60;;
26612;SDS011;14248;57.652;11.908;2023-05-10T15:03:09;1.80;;;1.70;;
26612;SDS011;14248;57.652;11.908;2023-05-10T15:05:36;2.00;;;1.85;;
26612;SDS011;14248;57.652;11.908;2023-05-10T15:08:03;2.08;;;1.63;;
26612;SDS011;14248;57.652;11.908;2023-05-10T15:10:29;1.90;;;1.50;;
26612;SDS011;14248;57.652;11.908;2023-05-10T15:12:55;1.73;;;1.63;;
26612;SDS011;14248;57.652;11.908;2023-05-10T15:15:21;2.97;;;2.05;;
26612;SDS011;14248;57.652;11.908;2023-05-10T15:17:47;1.60;;;1.40;;
26612;SDS011;14248;57.652;11.908;2023-05-10T15:20:13;2.63;;;1.52;;
26612;SDS011;14248;57.652;11.908;2023-05-10T15:22:38;3.50;;;1.67;;
26612;SDS011;14248;57.652;11.908;2023-05-10T15:25:04;1.50;;;1.40;;